Terminal Aerodrome Forecast
Issued by NWS Green Bay, WI

Home | Current Version | Previous Version | Text Only | Print | Product List | Glossary Off
Versions: 1 2 3 4 5 6 7 8 9 10 11 12 13 14

000
FTUS43 KGRB 191137
TAFGRB
TAF
KGRB 191137Z 1912/2012 31011G18KT P6SM OVC035
      TEMPO 1914/1916 SCT035
     FM191600 29012G18KT P6SM SCT035
     FM192200 26008KT P6SM SCT050 BKN090
     FM200300 24005KT P6SM SCT090=

USA.gov is the U.S. government's official web portal to all federal, state and local government web resources and services.